sensor_id;sensor_type;location;lat;lon;timestamp;temperature;humidity
46085;DHT22;31823;47.032;8.310;2023-04-24T00:02:13;9.50;99.90
46085;DHT22;31823;47.032;8.310;2023-04-24T00:04:39;9.50;99.90
46085;DHT22;31823;47.032;8.310;2023-04-24T00:07:06;9.60;99.90
46085;DHT22;31823;47.032;8.310;2023-04-24T00:09:32;9.60;99.90
46085;DHT22;31823;47.032;8.310;2023-04-24T00:11:58;9.60;99.90
46085;DHT22;31823;47.032;8.310;2023-04-24T00:14:24;9.50;99.90
46085;DHT22;31823;47.032;8.310;2023-04-24T00:16:49;9.50;99.90
46085;DHT22;31823;47.032;8.310;2023-04-24T00:19:15;9.50;99.90
46085;DHT22;31823;47.032;8.310;2023-04-24T00:21:41;9.80;99.90
46085;DHT22;31823;47.032;8.310;2023-04-24T00:24:07;10.10;99.90
46085;DHT22;31823;47.032;8.310;2023-04-24T00:26:34;10.20;99.90
46085;DHT22;31823;47.032;8.310;2023-04-24T00:29:00;10.50;99.90
46085;DHT22;31823;47.032;8.310;2023-04-24T00:31:25;10.50;99.90
46085;DHT22;31823;47.032;8.310;2023-04-24T00:33:51;10.50;99.90
46085;DHT22;31823;47.032;8.310;2023-04-24T00:36:16;10.50;99.90
46085;DHT22;31823;47.032;8.310;2023-04-24T00:38:44;10.60;99.90
46085;DHT22;31823;47.032;8.310;2023-04-24T00:41:10;10.50;99.90
46085;DHT22;31823;47.032;8.310;2023-04-24T00:43:36;10.50;99.90
46085;DHT22;31823;47.032;8.310;2023-04-24T00:46:01;10.60;99.90
46085;DHT22;31823;47.032;8.310;2023-04-24T00:48:27;10.50;99.90
46085;DHT22;31823;47.032;8.310;2023-04-24T00:50:53;10.50;99.90
46085;DHT22;31823;47.032;8.310;2023-04-24T00:53:19;10.50;99.90
46085;DHT22;31823;47.032;8.310;2023-04-24T00:55:45;10.70;99.90
46085;DHT22;31823;47.032;8.310;2023-04-24T00:58:12;10.70;99.90
46085;DHT22;31823;47.032;8.310;2023-04-24T01:00:38;10.70;99.90
46085;DHT22;31823;47.032;8.310;2023-04-24T01:03:05;10.70;99.90
46085;DHT22;31823;47.032;8.310;2023-04-24T01:05:31;10.70;99.90
46085;DHT22;31823;47.032;8.310;2023-04-24T01:07:58;10.50;99.90
46085;DHT22;31823;47.032;8.310;2023-04-24T01:10:24;10.50;99.90
46085;DHT22;31823;47.032;8.310;2023-04-24T01:12:51;10.50;99.90
46085;DHT22;31823;47.032;8.310;2023-04-24T01:15:17;10.50;99.90
46085;DHT22;31823;47.032;8.310;2023-04-24T01:17:43;10.50;99.90
46085;DHT22;31823;47.032;8.310;2023-04-24T01:20:09;10.50;99.90
46085;DHT22;31823;47.032;8.310;2023-04-24T01:22:34;10.60;99.90
46085;DHT22;31823;47.032;8.310;2023-04-24T01:25:00;10.50;99.90
46085;DHT22;31823;47.032;8.310;2023-04-24T01:27:26;10.50;99.90
46085;DHT22;31823;47.032;8.310;2023-04-24T01:29:52;10.40;99.90
46085;DHT22;31823;47.032;8.310;2023-04-24T01:32:18;10.50;99.90
46085;DHT22;31823;47.032;8.310;2023-04-24T01:34:45;10.50;99.90
46085;DHT22;31823;47.032;8.310;2023-04-24T01:37:11;9.80;99.90
46085;DHT22;31823;47.032;8.310;2023-04-24T01:39:37;9.30;99.90
46085;DHT22;31823;47.032;8.310;2023-04-24T01:42:04;9.30;99.90
46085;DHT22;31823;47.032;8.310;2023-04-24T01:44:30;9.20;99.90
46085;DHT22;31823;47.032;8.310;2023-04-24T01:46:56;9.20;99.90
46085;DHT22;31823;47.032;8.310;2023-04-24T01:49:22;9.20;99.90
46085;DHT22;31823;47.032;8.310;2023-04-24T01:51:48;9.30;99.90
46085;DHT22;31823;47.032;8.310;2023-04-24T01:54:13;9.30;99.90
46085;DHT22;31823;47.032;8.310;2023-04-24T01:56:42;9.20;99.90
46085;DHT22;31823;47.032;8.310;2023-04-24T01:59:10;9.20;99.90
46085;DHT22;31823;47.032;8.310;2023-04-24T02:01:37;9.10;99.90
46085;DHT22;31823;47.032;8.310;2023-04-24T02:04:04;9.20;99.90
46085;DHT22;31823;47.032;8.310;2023-04-24T02:06:30;9.20;99.90
46085;DHT22;31823;47.032;8.310;2023-04-24T02:09:00;9.20;99.90
46085;DHT22;31823;47.032;8.310;2023-04-24T02:11:26;9.30;99.90
46085;DHT22;31823;47.032;8.310;2023-04-24T02:13:52;9.20;99.90
46085;DHT22;31823;47.032;8.310;2023-04-24T02:16:18;9.10;99.90
46085;DHT22;31823;47.032;8.310;2023-04-24T02:18:44;9.20;99.90
46085;DHT22;31823;47.032;8.310;2023-04-24T02:21:10;9.20;99.90
46085;DHT22;31823;47.032;8.310;2023-04-24T02:23:36;9.10;99.90
46085;DHT22;31823;47.032;8.310;2023-04-24T02:26:01;9.30;99.90
46085;DHT22;31823;47.032;8.310;2023-04-24T02:28:27;9.30;99.90
46085;DHT22;31823;47.032;8.310;2023-04-24T02:30:53;9.10;99.90
46085;DHT22;31823;47.032;8.310;2023-04-24T02:33:18;9.10;99.90
46085;DHT22;31823;47.032;8.310;2023-04-24T02:35:44;9.30;99.90
46085;DHT22;31823;47.032;8.310;2023-04-24T02:38:09;9.30;99.90
46085;DHT22;31823;47.032;8.310;2023-04-24T02:40:35;9.20;99.90
46085;DHT22;31823;47.032;8.310;2023-04-24T02:43:01;9.30;99.90
46085;DHT22;31823;47.032;8.310;2023-04-24T02:45:26;9.90;99.90
46085;DHT22;31823;47.032;8.310;2023-04-24T02:47:52;10.00;99.90
46085;DHT22;31823;47.032;8.310;2023-04-24T02:50:17;9.60;99.90
46085;DHT22;31823;47.032;8.310;2023-04-24T02:52:43;9.20;99.90
46085;DHT22;31823;47.032;8.310;2023-04-24T02:55:09;9.00;99.90
46085;DHT22;31823;47.032;8.310;2023-04-24T02:57:34;8.90;99.90
46085;DHT22;31823;47.032;8.310;2023-04-24T03:00:00;8.80;99.90
46085;DHT22;31823;47.032;8.310;2023-04-24T03:02:26;8.80;99.90
46085;DHT22;31823;47.032;8.310;2023-04-24T03:04:51;9.00;99.90
46085;DHT22;31823;47.032;8.310;2023-04-24T03:07:17;8.80;99.90
46085;DHT22;31823;47.032;8.310;2023-04-24T03:09:46;8.80;99.90
46085;DHT22;31823;47.032;8.310;2023-04-24T03:12:12;8.70;99.90
46085;DHT22;31823;47.032;8.310;2023-04-24T03:14:37;8.70;99.90
46085;DHT22;31823;47.032;8.310;2023-04-24T03:17:03;8.80;99.90
46085;DHT22;31823;47.032;8.310;2023-04-24T03:19:28;8.90;99.90
46085;DHT22;31823;47.032;8.310;2023-04-24T03:21:54;8.90;99.90
46085;DHT22;31823;47.032;8.310;2023-04-24T03:24:20;8.80;99.90
46085;DHT22;31823;47.032;8.310;2023-04-24T03:26:46;8.70;99.90
46085;DHT22;31823;47.032;8.310;2023-04-24T03:29:11;9.00;99.90
46085;DHT22;31823;47.032;8.310;2023-04-24T03:31:37;8.90;99.90
46085;DHT22;31823;47.032;8.310;2023-04-24T03:34:02;8.80;99.90
46085;DHT22;31823;47.032;8.310;2023-04-24T03:36:28;8.80;99.90
46085;DHT22;31823;47.032;8.310;2023-04-24T03:38:53;8.80;99.90
46085;DHT22;31823;47.032;8.310;2023-04-24T03:41:19;8.90;99.90
46085;DHT22;31823;47.032;8.310;2023-04-24T03:43:44;8.80;99.90
46085;DHT22;31823;47.032;8.310;2023-04-24T03:46:10;8.70;99.90
46085;DHT22;31823;47.032;8.310;2023-04-24T03:48:36;8.60;99.90
46085;DHT22;31823;47.032;8.310;2023-04-24T03:51:01;8.60;99.90
46085;DHT22;31823;47.032;8.310;2023-04-24T03:53:27;8.50;99.90
46085;DHT22;31823;47.032;8.310;2023-04-24T03:55:53;8.90;99.90
46085;DHT22;31823;47.032;8.310;2023-04-24T03:58:19;8.90;99.90
46085;DHT22;31823;47.032;8.310;2023-04-24T04:00:44;8.90;99.90
46085;DHT22;31823;47.032;8.310;2023-04-24T04:03:11;8.80;99.90
46085;DHT22;31823;47.032;8.310;2023-04-24T04:05:38;8.60;99.90
46085;DHT22;31823;47.032;8.310;2023-04-24T04:08:04;8.40;99.90
46085;DHT22;31823;47.032;8.310;2023-04-24T04:10:30;8.40;99.90
46085;DHT22;31823;47.032;8.310;2023-04-24T04:12:55;8.30;99.90
46085;DHT22;31823;47.032;8.310;2023-04-24T04:15:21;8.60;99.90
46085;DHT22;31823;47.032;8.310;2023-04-24T04:17:46;8.70;99.90
46085;DHT22;31823;47.032;8.310;2023-04-24T04:20:12;8.50;99.90
46085;DHT22;31823;47.032;8.310;2023-04-24T04:22:39;8.20;99.90
46085;DHT22;31823;47.032;8.310;2023-04-24T04:25:05;8.10;99.90
46085;DHT22;31823;47.032;8.310;2023-04-24T04:27:31;8.10;99.90
46085;DHT22;31823;47.032;8.310;2023-04-24T04:29:58;8.00;99.90
46085;DHT22;31823;47.032;8.310;2023-04-24T04:32:26;8.20;99.90
46085;DHT22;31823;47.032;8.310;2023-04-24T04:34:52;8.30;99.90
46085;DHT22;31823;47.032;8.310;2023-04-24T04:37:18;8.10;99.90
46085;DHT22;31823;47.032;8.310;2023-04-24T04:39:44;8.30;99.90
46085;DHT22;31823;47.032;8.310;2023-04-24T04:42:10;8.40;99.90
46085;DHT22;31823;47.032;8.310;2023-04-24T04:44:35;8.40;99.90
46085;DHT22;31823;47.032;8.310;2023-04-24T04:47:02;8.40;99.90
46085;DHT22;31823;47.032;8.310;2023-04-24T04:49:31;8.70;99.90
46085;DHT22;31823;47.032;8.310;2023-04-24T04:51:57;8.80;99.90
46085;DHT22;31823;47.032;8.310;2023-04-24T04:54:23;9.00;99.90
46085;DHT22;31823;47.032;8.310;2023-04-24T04:56:51;8.80;99.90
46085;DHT22;31823;47.032;8.310;2023-04-24T04:59:17;8.60;99.90
46085;DHT22;31823;47.032;8.310;2023-04-24T05:01:42;8.90;99.90
46085;DHT22;31823;47.032;8.310;2023-04-24T05:04:08;8.90;99.90
46085;DHT22;31823;47.032;8.310;2023-04-24T05:06:34;8.80;99.90
46085;DHT22;31823;47.032;8.310;2023-04-24T05:08:59;8.60;99.90
46085;DHT22;31823;47.032;8.310;2023-04-24T05:11:25;9.30;99.90
46085;DHT22;31823;47.032;8.310;2023-04-24T05:13:50;9.90;99.90
46085;DHT22;31823;47.032;8.310;2023-04-24T05:16:16;10.00;99.90
46085;DHT22;31823;47.032;8.310;2023-04-24T05:18:42;10.20;99.90
46085;DHT22;31823;47.032;8.310;2023-04-24T05:21:07;10.30;99.90
46085;DHT22;31823;47.032;8.310;2023-04-24T05:23:33;10.20;99.90
46085;DHT22;31823;47.032;8.310;2023-04-24T05:25:58;10.30;99.90
46085;DHT22;31823;47.032;8.310;2023-04-24T05:28:24;10.40;99.90
46085;DHT22;31823;47.032;8.310;2023-04-24T05:30:54;10.40;99.90
46085;DHT22;31823;47.032;8.310;2023-04-24T05:33:20;10.50;99.90
46085;DHT22;31823;47.032;8.310;2023-04-24T05:35:46;10.60;99.90
46085;DHT22;31823;47.032;8.310;2023-04-24T05:38:12;10.60;99.90
46085;DHT22;31823;47.032;8.310;2023-04-24T05:40:39;10.60;99.90
46085;DHT22;31823;47.032;8.310;2023-04-24T05:43:04;10.60;99.90
46085;DHT22;31823;47.032;8.310;2023-04-24T05:45:30;10.60;99.90
46085;DHT22;31823;47.032;8.310;2023-04-24T05:47:56;10.60;99.90
46085;DHT22;31823;47.032;8.310;2023-04-24T05:50:21;10.50;99.90
46085;DHT22;31823;47.032;8.310;2023-04-24T05:52:47;10.60;99.90
46085;DHT22;31823;47.032;8.310;2023-04-24T05:55:12;10.60;99.90
46085;DHT22;31823;47.032;8.310;2023-04-24T05:57:38;10.60;99.90
46085;DHT22;31823;47.032;8.310;2023-04-24T06:00:05;10.60;99.90
46085;DHT22;31823;47.032;8.310;2023-04-24T06:02:31;10.70;99.90
46085;DHT22;31823;47.032;8.310;2023-04-24T06:04:58;10.70;99.90
46085;DHT22;31823;47.032;8.310;2023-04-24T06:07:25;10.70;99.90
46085;DHT22;31823;47.032;8.310;2023-04-24T06:09:51;10.70;99.90
46085;DHT22;31823;47.032;8.310;2023-04-24T06:12:17;10.80;99.90
46085;DHT22;31823;47.032;8.310;2023-04-24T06:14:43;10.90;99.90
46085;DHT22;31823;47.032;8.310;2023-04-24T06:17:09;10.80;99.90
46085;DHT22;31823;47.032;8.310;2023-04-24T06:19:35;10.90;99.90
46085;DHT22;31823;47.032;8.310;2023-04-24T06:22:00;10.90;99.90
46085;DHT22;31823;47.032;8.310;2023-04-24T06:24:29;10.90;99.90
46085;DHT22;31823;47.032;8.310;2023-04-24T06:26:54;10.90;99.90
46085;DHT22;31823;47.032;8.310;2023-04-24T06:29:22;10.90;99.90
46085;DHT22;31823;47.032;8.310;2023-04-24T06:31:47;10.80;99.90
46085;DHT22;31823;47.032;8.310;2023-04-24T06:34:13;10.60;99.90
46085;DHT22;31823;47.032;8.310;2023-04-24T06:36:39;10.80;99.90
46085;DHT22;31823;47.032;8.310;2023-04-24T06:39:04;10.90;99.90
46085;DHT22;31823;47.032;8.310;2023-04-24T06:41:30;11.00;99.90
46085;DHT22;31823;47.032;8.310;2023-04-24T06:43:55;11.20;99.90
46085;DHT22;31823;47.032;8.310;2023-04-24T06:46:22;11.30;99.90
46085;DHT22;31823;47.032;8.310;2023-04-24T06:48:49;11.30;99.90
46085;DHT22;31823;47.032;8.310;2023-04-24T06:51:15;11.40;99.90
46085;DHT22;31823;47.032;8.310;2023-04-24T06:53:42;11.50;99.90
46085;DHT22;31823;47.032;8.310;2023-04-24T06:56:08;11.10;99.90
46085;DHT22;31823;47.032;8.310;2023-04-24T06:58:34;10.70;99.90
46085;DHT22;31823;47.032;8.310;2023-04-24T07:00:59;10.70;99.90
46085;DHT22;31823;47.032;8.310;2023-04-24T07:03:25;10.90;99.90
46085;DHT22;31823;47.032;8.310;2023-04-24T07:05:50;11.50;99.90
46085;DHT22;31823;47.032;8.310;2023-04-24T07:08:16;11.60;99.90
46085;DHT22;31823;47.032;8.310;2023-04-24T07:10:43;11.80;99.90
46085;DHT22;31823;47.032;8.310;2023-04-24T07:13:09;11.80;99.90
46085;DHT22;31823;47.032;8.310;2023-04-24T07:15:35;12.20;99.90
46085;DHT22;31823;47.032;8.310;2023-04-24T07:18:00;12.40;99.90
46085;DHT22;31823;47.032;8.310;2023-04-24T07:20:26;12.50;99.90
46085;DHT22;31823;47.032;8.310;2023-04-24T07:22:52;12.60;99.90
46085;DHT22;31823;47.032;8.310;2023-04-24T07:25:19;12.60;99.90
46085;DHT22;31823;47.032;8.310;2023-04-24T07:27:45;12.70;99.90
46085;DHT22;31823;47.032;8.310;2023-04-24T07:30:11;13.00;99.90
46085;DHT22;31823;47.032;8.310;2023-04-24T07:32:36;13.00;99.90
46085;DHT22;31823;47.032;8.310;2023-04-24T07:35:02;12.90;99.90
46085;DHT22;31823;47.032;8.310;2023-04-24T07:37:28;13.30;99.90
46085;DHT22;31823;47.032;8.310;2023-04-24T07:39:54;13.10;99.90
46085;DHT22;31823;47.032;8.310;2023-04-24T07:42:20;13.10;99.90
46085;DHT22;31823;47.032;8.310;2023-04-24T07:44:45;13.60;99.90
46085;DHT22;31823;47.032;8.310;2023-04-24T07:47:13;14.30;99.90
46085;DHT22;31823;47.032;8.310;2023-04-24T07:49:41;14.50;99.90
46085;DHT22;31823;47.032;8.310;2023-04-24T07:52:07;14.10;99.90
46085;DHT22;31823;47.032;8.310;2023-04-24T07:54:32;13.90;99.90
46085;DHT22;31823;47.032;8.310;2023-04-24T07:56:58;13.50;99.90
46085;DHT22;31823;47.032;8.310;2023-04-24T07:59:24;13.20;99.90
46085;DHT22;31823;47.032;8.310;2023-04-24T08:01:49;13.40;99.90
46085;DHT22;31823;47.032;8.310;2023-04-24T08:04:15;13.00;99.90
46085;DHT22;31823;47.032;8.310;2023-04-24T08:06:40;12.70;99.90
46085;DHT22;31823;47.032;8.310;2023-04-24T08:09:06;12.40;99.90
46085;DHT22;31823;47.032;8.310;2023-04-24T08:11:32;12.20;99.90
46085;DHT22;31823;47.032;8.310;2023-04-24T08:13:58;11.90;99.90
46085;DHT22;31823;47.032;8.310;2023-04-24T08:16:23;11.80;99.90
46085;DHT22;31823;47.032;8.310;2023-04-24T08:18:50;11.70;99.90
46085;DHT22;31823;47.032;8.310;2023-04-24T08:21:15;11.70;99.90
46085;DHT22;31823;47.032;8.310;2023-04-24T08:23:44;11.70;99.90
46085;DHT22;31823;47.032;8.310;2023-04-24T08:26:09;11.60;99.90
46085;DHT22;31823;47.032;8.310;2023-04-24T08:28:36;11.60;99.90
46085;DHT22;31823;47.032;8.310;2023-04-24T08:31:02;11.60;99.90
46085;DHT22;31823;47.032;8.310;2023-04-24T08:33:28;11.60;99.90
46085;DHT22;31823;47.032;8.310;2023-04-24T08:36:00;11.60;99.90
46085;DHT22;31823;47.032;8.310;2023-04-24T08:38:26;11.70;99.90
46085;DHT22;31823;47.032;8.310;2023-04-24T08:40:52;11.70;99.90
46085;DHT22;31823;47.032;8.310;2023-04-24T08:43:17;11.80;99.90
46085;DHT22;31823;47.032;8.310;2023-04-24T08:45:43;11.90;99.90
46085;DHT22;31823;47.032;8.310;2023-04-24T08:48:09;12.00;99.90
46085;DHT22;31823;47.032;8.310;2023-04-24T08:50:36;11.90;99.90
46085;DHT22;31823;47.032;8.310;2023-04-24T08:53:02;12.00;99.90
46085;DHT22;31823;47.032;8.310;2023-04-24T08:55:29;12.20;99.90
46085;DHT22;31823;47.032;8.310;2023-04-24T08:57:55;12.20;99.90
46085;DHT22;31823;47.032;8.310;2023-04-24T09:00:22;12.30;99.90
46085;DHT22;31823;47.032;8.310;2023-04-24T09:02:49;12.20;99.90
46085;DHT22;31823;47.032;8.310;2023-04-24T09:05:17;11.90;99.90
46085;DHT22;31823;47.032;8.310;2023-04-24T09:07:46;11.60;99.90
46085;DHT22;31823;47.032;8.310;2023-04-24T09:10:15;11.30;99.90
46085;DHT22;31823;47.032;8.310;2023-04-24T09:12:41;10.70;99.90
46085;DHT22;31823;47.032;8.310;2023-04-24T09:15:08;10.30;99.90
46085;DHT22;31823;47.032;8.310;2023-04-24T09:17:33;10.10;99.90
46085;DHT22;31823;47.032;8.310;2023-04-24T09:20:00;10.00;99.90
46085;DHT22;31823;47.032;8.310;2023-04-24T09:22:30;10.30;99.90
46085;DHT22;31823;47.032;8.310;2023-04-24T09:25:07;10.50;99.90
46085;DHT22;31823;47.032;8.310;2023-04-24T09:27:33;10.40;99.90
46085;DHT22;31823;47.032;8.310;2023-04-24T09:30:00;10.60;99.90
46085;DHT22;31823;47.032;8.310;2023-04-24T09:32:26;10.90;99.90
46085;DHT22;31823;47.032;8.310;2023-04-24T09:35:07;10.90;99.90
46085;DHT22;31823;47.032;8.310;2023-04-24T09:37:44;10.80;99.90
46085;DHT22;31823;47.032;8.310;2023-04-24T09:40:20;10.80;99.90
46085;DHT22;31823;47.032;8.310;2023-04-24T09:42:52;10.80;99.90
46085;DHT22;31823;47.032;8.310;2023-04-24T09:45:18;10.90;99.90
46085;DHT22;31823;47.032;8.310;2023-04-24T09:47:44;10.60;99.90
46085;DHT22;31823;47.032;8.310;2023-04-24T09:50:15;10.70;99.90
46085;DHT22;31823;47.032;8.310;2023-04-24T09:52:59;11.20;99.90
46085;DHT22;31823;47.032;8.310;2023-04-24T09:55:27;12.30;99.90
46085;DHT22;31823;47.032;8.310;2023-04-24T09:57:58;12.90;98.40
46085;DHT22;31823;47.032;8.310;2023-04-24T10:00:27;13.40;99.10
46085;DHT22;31823;47.032;8.310;2023-04-24T10:03:00;12.90;98.50
46085;DHT22;31823;47.032;8.310;2023-04-24T10:05:30;12.70;97.00
46085;DHT22;31823;47.032;8.310;2023-04-24T10:08:04;12.40;98.40
46085;DHT22;31823;47.032;8.310;2023-04-24T10:10:35;12.40;98.80
46085;DHT22;31823;47.032;8.310;2023-04-24T10:13:04;12.30;98.90
46085;DHT22;31823;47.032;8.310;2023-04-24T10:15:30;12.20;99.50
46085;DHT22;31823;47.032;8.310;2023-04-24T10:17:58;12.30;98.70
46085;DHT22;31823;47.032;8.310;2023-04-24T10:20:26;12.20;99.60
46085;DHT22;31823;47.032;8.310;2023-04-24T10:22:53;12.00;98.70
46085;DHT22;31823;47.032;8.310;2023-04-24T10:25:26;11.90;99.90
46085;DHT22;31823;47.032;8.310;2023-04-24T10:27:53;11.70;99.90
46085;DHT22;31823;47.032;8.310;2023-04-24T10:30:19;11.70;99.90
46085;DHT22;31823;47.032;8.310;2023-04-24T10:32:45;11.60;99.90
46085;DHT22;31823;47.032;8.310;2023-04-24T10:35:13;11.60;99.90
46085;DHT22;31823;47.032;8.310;2023-04-24T10:37:45;11.60;99.90
46085;DHT22;31823;47.032;8.310;2023-04-24T10:40:16;11.50;99.50
46085;DHT22;31823;47.032;8.310;2023-04-24T10:42:42;11.60;99.90
46085;DHT22;31823;47.032;8.310;2023-04-24T10:45:19;11.70;99.70
46085;DHT22;31823;47.032;8.310;2023-04-24T10:48:03;11.80;99.60
46085;DHT22;31823;47.032;8.310;2023-04-24T10:50:41;11.80;99.90
46085;DHT22;31823;47.032;8.310;2023-04-24T10:53:12;11.90;99.50
46085;DHT22;31823;47.032;8.310;2023-04-24T10:58:49;12.10;99.90
46085;DHT22;31823;47.032;8.310;2023-04-24T11:01:28;12.00;98.90
46085;DHT22;31823;47.032;8.310;2023-04-24T11:03:56;12.00;98.90
46085;DHT22;31823;47.032;8.310;2023-04-24T11:06:29;12.10;98.40
46085;DHT22;31823;47.032;8.310;2023-04-24T11:09:05;12.90;97.70
46085;DHT22;31823;47.032;8.310;2023-04-24T11:11:32;13.60;97.00
46085;DHT22;31823;47.032;8.310;2023-04-24T11:16:35;14.00;97.00
46085;DHT22;31823;47.032;8.310;2023-04-24T11:21:45;14.80;94.70
46085;DHT22;31823;47.032;8.310;2023-04-24T11:24:28;14.70;94.50
46085;DHT22;31823;47.032;8.310;2023-04-24T11:27:13;15.10;94.70
46085;DHT22;31823;47.032;8.310;2023-04-24T11:32:35;15.20;94.00
46085;DHT22;31823;47.032;8.310;2023-04-24T11:37:40;14.50;94.60
46085;DHT22;31823;47.032;8.310;2023-04-24T11:40:08;14.00;95.30
46085;DHT22;31823;47.032;8.310;2023-04-24T11:42:43;13.90;94.20
46085;DHT22;31823;47.032;8.310;2023-04-24T11:45:14;14.20;95.00
46085;DHT22;31823;47.032;8.310;2023-04-24T11:47:41;14.90;94.50
46085;DHT22;31823;47.032;8.310;2023-04-24T11:50:12;15.20;96.10
46085;DHT22;31823;47.032;8.310;2023-04-24T11:52:40;15.40;94.20
46085;DHT22;31823;47.032;8.310;2023-04-24T11:57:50;15.40;94.90
46085;DHT22;31823;47.032;8.310;2023-04-24T12:00:18;15.20;92.80
46085;DHT22;31823;47.032;8.310;2023-04-24T12:02:44;16.20;92.10
46085;DHT22;31823;47.032;8.310;2023-04-24T12:05:23;15.90;94.70
46085;DHT22;31823;47.032;8.310;2023-04-24T12:07:49;14.90;92.20
46085;DHT22;31823;47.032;8.310;2023-04-24T12:10:20;14.40;92.10
46085;DHT22;31823;47.032;8.310;2023-04-24T12:12:46;13.90;93.10
46085;DHT22;31823;47.032;8.310;2023-04-24T12:15:12;14.20;92.90
46085;DHT22;31823;47.032;8.310;2023-04-24T12:17:41;14.40;93.00
46085;DHT22;31823;47.032;8.310;2023-04-24T12:20:08;14.10;93.50
46085;DHT22;31823;47.032;8.310;2023-04-24T12:22:45;14.00;93.50
46085;DHT22;31823;47.032;8.310;2023-04-24T12:25:12;13.80;94.20
46085;DHT22;31823;47.032;8.310;2023-04-24T12:27:37;13.80;94.10
46085;DHT22;31823;47.032;8.310;2023-04-24T12:30:05;13.60;93.10
46085;DHT22;31823;47.032;8.310;2023-04-24T12:32:31;13.90;94.30
46085;DHT22;31823;47.032;8.310;2023-04-24T12:34:57;13.80;94.10
46085;DHT22;31823;47.032;8.310;2023-04-24T12:37:24;14.00;94.00
46085;DHT22;31823;47.032;8.310;2023-04-24T12:42:35;13.80;92.60
46085;DHT22;31823;47.032;8.310;2023-04-24T12:45:06;14.00;93.60
46085;DHT22;31823;47.032;8.310;2023-04-24T12:47:32;14.60;94.20
46085;DHT22;31823;47.032;8.310;2023-04-24T12:49:59;14.30;91.90
46085;DHT22;31823;47.032;8.310;2023-04-24T12:52:26;14.70;92.00
46085;DHT22;31823;47.032;8.310;2023-04-24T12:54:56;14.20;92.60
46085;DHT22;31823;47.032;8.310;2023-04-24T12:57:23;14.20;91.80
46085;DHT22;31823;47.032;8.310;2023-04-24T12:59:49;14.50;92.70
46085;DHT22;31823;47.032;8.310;2023-04-24T13:02:16;14.60;91.40
46085;DHT22;31823;47.032;8.310;2023-04-24T13:04:47;14.60;92.20
46085;DHT22;31823;47.032;8.310;2023-04-24T13:07:14;15.00;91.80
46085;DHT22;31823;47.032;8.310;2023-04-24T13:09:41;16.10;94.00
46085;DHT22;31823;47.032;8.310;2023-04-24T13:12:07;16.80;90.10
46085;DHT22;31823;47.032;8.310;2023-04-24T13:14:33;16.70;88.50
46085;DHT22;31823;47.032;8.310;2023-04-24T13:16:59;14.90;89.40
46085;DHT22;31823;47.032;8.310;2023-04-24T13:19:26;15.20;91.60
46085;DHT22;31823;47.032;8.310;2023-04-24T13:21:52;15.60;90.30
46085;DHT22;31823;47.032;8.310;2023-04-24T13:24:18;15.00;92.00
46085;DHT22;31823;47.032;8.310;2023-04-24T13:26:43;15.20;90.90
46085;DHT22;31823;47.032;8.310;2023-04-24T13:29:09;14.80;90.80
46085;DHT22;31823;47.032;8.310;2023-04-24T13:31:35;14.50;91.20
46085;DHT22;31823;47.032;8.310;2023-04-24T13:34:02;14.30;90.70
46085;DHT22;31823;47.032;8.310;2023-04-24T13:36:28;13.90;93.00
46085;DHT22;31823;47.032;8.310;2023-04-24T13:38:53;13.60;92.90
46085;DHT22;31823;47.032;8.310;2023-04-24T13:41:19;13.50;93.20
46085;DHT22;31823;47.032;8.310;2023-04-24T13:43:45;13.30;93.30
46085;DHT22;31823;47.032;8.310;2023-04-24T13:46:10;13.40;93.30
46085;DHT22;31823;47.032;8.310;2023-04-24T13:48:36;13.20;92.40
46085;DHT22;31823;47.032;8.310;2023-04-24T13:51:02;14.30;91.30
46085;DHT22;31823;47.032;8.310;2023-04-24T13:53:27;14.60;91.70
46085;DHT22;31823;47.032;8.310;2023-04-24T13:55:53;15.10;91.20
46085;DHT22;31823;47.032;8.310;2023-04-24T13:58:18;15.50;90.30
46085;DHT22;31823;47.032;8.310;2023-04-24T14:00:44;16.30;91.70
46085;DHT22;31823;47.032;8.310;2023-04-24T14:03:10;16.10;90.30
46085;DHT22;31823;47.032;8.310;2023-04-24T14:05:36;15.80;90.90
46085;DHT22;31823;47.032;8.310;2023-04-24T14:08:01;16.40;90.40
46085;DHT22;31823;47.032;8.310;2023-04-24T14:10:27;16.40;90.50
46085;DHT22;31823;47.032;8.310;2023-04-24T14:12:53;16.10;90.20
46085;DHT22;31823;47.032;8.310;2023-04-24T14:15:19;16.10;91.80
46085;DHT22;31823;47.032;8.310;2023-04-24T14:17:45;16.70;91.20
46085;DHT22;31823;47.032;8.310;2023-04-24T14:20:12;16.50;92.00
46085;DHT22;31823;47.032;8.310;2023-04-24T14:22:38;16.20;90.00
46085;DHT22;31823;47.032;8.310;2023-04-24T14:25:04;16.20;91.00
46085;DHT22;31823;47.032;8.310;2023-04-24T14:27:31;15.90;90.60
46085;DHT22;31823;47.032;8.310;2023-04-24T14:29:57;15.80;89.00
46085;DHT22;31823;47.032;8.310;2023-04-24T14:32:23;16.10;91.10
46085;DHT22;31823;47.032;8.310;2023-04-24T14:34:48;16.40;88.90
46085;DHT22;31823;47.032;8.310;2023-04-24T14:37:14;16.30;90.40
46085;DHT22;31823;47.032;8.310;2023-04-24T14:39:40;16.20;89.90
46085;DHT22;31823;47.032;8.310;2023-04-24T14:42:06;16.20;89.10
46085;DHT22;31823;47.032;8.310;2023-04-24T14:44:31;16.70;90.10
46085;DHT22;31823;47.032;8.310;2023-04-24T14:46:58;16.60;88.80
46085;DHT22;31823;47.032;8.310;2023-04-24T14:49:24;16.40;89.10
46085;DHT22;31823;47.032;8.310;2023-04-24T14:51:49;16.90;89.20
46085;DHT22;31823;47.032;8.310;2023-04-24T14:54:15;16.10;89.30
46085;DHT22;31823;47.032;8.310;2023-04-24T14:56:41;15.30;91.00
46085;DHT22;31823;47.032;8.310;2023-04-24T14:59:08;15.50;91.90
46085;DHT22;31823;47.032;8.310;2023-04-24T15:01:33;16.10;89.90
46085;DHT22;31823;47.032;8.310;2023-04-24T15:03:59;15.90;90.80
46085;DHT22;31823;47.032;8.310;2023-04-24T15:06:25;15.60;90.40
46085;DHT22;31823;47.032;8.310;2023-04-24T15:08:50;15.10;91.00
46085;DHT22;31823;47.032;8.310;2023-04-24T15:11:16;14.90;91.10
46085;DHT22;31823;47.032;8.310;2023-04-24T15:13:42;14.90;88.30
46085;DHT22;31823;47.032;8.310;2023-04-24T15:16:07;14.70;90.20
46085;DHT22;31823;47.032;8.310;2023-04-24T15:18:33;14.40;90.30
46085;DHT22;31823;47.032;8.310;2023-04-24T15:20:58;14.30;90.80
46085;DHT22;31823;47.032;8.310;2023-04-24T15:23:24;14.30;91.90
46085;DHT22;31823;47.032;8.310;2023-04-24T15:25:49;14.30;91.10
46085;DHT22;31823;47.032;8.310;2023-04-24T15:28:15;14.20;91.00
46085;DHT22;31823;47.032;8.310;2023-04-24T15:30:41;14.30;92.20
46085;DHT22;31823;47.032;8.310;2023-04-24T15:33:07;14.70;91.30
46085;DHT22;31823;47.032;8.310;2023-04-24T15:35:33;15.10;90.90
46085;DHT22;31823;47.032;8.310;2023-04-24T15:37:59;15.40;89.70
46085;DHT22;31823;47.032;8.310;2023-04-24T15:40:24;15.10;90.30
46085;DHT22;31823;47.032;8.310;2023-04-24T15:42:50;14.70;92.00
46085;DHT22;31823;47.032;8.310;2023-04-24T15:45:16;14.50;93.90
46085;DHT22;31823;47.032;8.310;2023-04-24T15:47:41;14.30;93.20
46085;DHT22;31823;47.032;8.310;2023-04-24T15:50:09;14.20;90.80
46085;DHT22;31823;47.032;8.310;2023-04-24T15:52:36;14.10;92.00